Time;durP1;ratioP1;P1;durP2;ratioP2;P2;SDS_P1;SDS_P2;PMS_P1;PMS_P2;Temp;Humidity;BMP_temperature;BMP_pressure;BME280_temperature;BME280_humidity;BME280_pressure;Samples;Min_cycle;Max_cycle;Signal;HPM_P1;HPM_P2
2022/12/16 00:02:19;;;;;;;;;;;;;;;8.59;44.82;100110.38;4945742;28;99427;-69
2022/12/16 00:04:45;;;;;;;;;;;;;;;8.57;45.18;100097.22;4944737;28;126626;-66
2022/12/16 00:07:11;;;;;;;;;;;;;;;8.58;45.15;100100.72;4943641;28;127385;-66
2022/12/16 00:09:37;;;;;;;;;;;;;;;8.57;44.84;100099.13;4928113;28;111429;-66
2022/12/16 00:12:03;;;;;;;;;;;;;;;8.58;45.05;100101.53;4943953;28;98642;-66
2022/12/16 00:14:29;;;;;;;;;;;;;;;8.58;44.93;100104.22;4955937;28;123770;-70
2022/12/16 00:16:55;;;;;;;;;;;;;;;8.59;45.68;100105.00;4943111;28;99728;-69
2022/12/16 00:19:21;;;;;;;;;;;;;;;8.60;45.56;100106.63;4960130;28;122506;-65
2022/12/16 00:21:47;;;;;;;;;;;;;;;8.59;44.88;100096.97;4974095;28;129860;-70
2022/12/16 00:24:13;;;;;;;;;;;;;;;8.58;45.12;100101.53;4939844;28;129527;-70
2022/12/16 00:26:38;;;;;;;;;;;;;;;8.58;44.72;100101.53;4961679;28;122868;-70
2022/12/16 00:29:05;;;;;;;;;;;;;;;8.59;44.83;100096.97;4940878;28;122684;-70
2022/12/16 00:31:30;;;;;;;;;;;;;;;8.59;45.23;100088.91;4939590;28;98262;-66
2022/12/16 00:33:57;;;;;;;;;;;;;;;8.58;45.13;100090.78;4941482;28;127943;-66
2022/12/16 00:36:23;;;;;;;;;;;;;;;8.58;44.80;100090.78;4956185;28;98257;-70
2022/12/16 00:38:50;;;;;;;;;;;;;;;8.59;45.31;100086.22;4938002;28;124191;-70
2022/12/16 00:41:16;;;;;;;;;;;;;;;8.58;45.62;100077.34;4969657;28;98389;-66
2022/12/16 00:43:42;;;;;;;;;;;;;;;8.63;45.26;100081.94;4946233;28;127262;-70
2022/12/16 00:46:08;;;;;;;;;;;;;;;8.71;45.47;100083.28;4959259;28;114158;-66
2022/12/16 00:48:34;;;;;;;;;;;;;;;8.79;45.32;100078.22;4942495;28;122526;-66
2022/12/16 00:51:00;;;;;;;;;;;;;;;8.85;45.26;100066.41;4942342;28;127250;-66
2022/12/16 00:53:26;;;;;;;;;;;;;;;8.91;45.60;100067.22;4957750;28;98527;-69
2022/12/16 00:56:02;;;;;;;;;;;;;;;8.95;45.05;100056.75;4942493;28;98152;-66
2022/12/16 00:58:28;;;;;;;;;;;;;;;8.99;44.99;100053.25;4944553;28;98042;-70
2022/12/16 01:00:54;;;;;;;;;;;;;;;9.02;44.95;100068.84;4971603;28;127614;-70
2022/12/16 01:03:20;;;;;;;;;;;;;;;9.05;44.96;100068.34;4956457;28;128482;-70
2022/12/16 01:05:46;;;;;;;;;;;;;;;9.08;45.44;100078.56;4942924;28;128505;-66
2022/12/16 01:08:12;;;;;;;;;;;;;;;9.12;45.40;100078.00;4957123;28;121363;-70
2022/12/16 01:10:38;;;;;;;;;;;;;;;9.13;45.45;100079.66;4942891;28;129532;-66
2022/12/16 01:13:03;;;;;;;;;;;;;;;9.13;45.31;100082.34;4941700;28;127120;-66
2022/12/16 01:15:29;;;;;;;;;;;;;;;9.14;45.14;100086.63;4976716;28;126456;-70
2022/12/16 01:17:55;;;;;;;;;;;;;;;9.15;44.62;100094.41;4939891;28;123454;-66
2022/12/16 01:20:24;;;;;;;;;;;;;;;9.15;45.07;100091.72;4946779;28;125225;-66
2022/12/16 01:22:50;;;;;;;;;;;;;;;9.17;45.08;100092.28;4942858;28;124523;-66
2022/12/16 01:25:16;;;;;;;;;;;;;;;9.17;45.21;100091.47;4971705;28;111668;-70
2022/12/16 01:27:42;;;;;;;;;;;;;;;9.17;45.36;100089.59;4936626;28;98313;-66
2022/12/16 01:30:09;;;;;;;;;;;;;;;9.18;44.64;100085.81;4926502;28;128387;-70
2022/12/16 01:32:35;;;;;;;;;;;;;;;9.18;45.59;100080.44;4941741;28;98444;-67
2022/12/16 01:35:01;;;;;;;;;;;;;;;9.18;45.72;100079.66;4974734;27;98613;-69
2022/12/16 01:37:27;;;;;;;;;;;;;;;9.18;45.33;100088.50;4956101;28;125504;-66
2022/12/16 01:39:53;;;;;;;;;;;;;;;9.19;45.39;100090.13;4938639;28;128643;-66
2022/12/16 01:42:20;;;;;;;;;;;;;;;9.19;44.83;100092.00;4941635;28;127583;-66
2022/12/16 01:44:48;;;;;;;;;;;;;;;9.20;45.32;100085.56;4956409;28;115595;-70
2022/12/16 01:47:27;;;;;;;;;;;;;;;9.18;45.34;100083.13;4940318;28;97993;-70
2022/12/16 01:49:57;;;;;;;;;;;;;;;9.19;45.47;100090.13;4957143;28;116642;-66
2022/12/16 01:52:27;;;;;;;;;;;;;;;9.19;45.18;100086.63;4955986;28;98443;-69
2022/12/16 01:55:17;;;;;;;;;;;;;;;9.20;45.26;100097.13;4945580;28;98616;-70
2022/12/16 01:57:51;;;;;;;;;;;;;;;9.20;45.07;100088.25;4954575;28;98166;-66
2022/12/16 02:00:17;;;;;;;;;;;;;;;9.21;45.23;100084.50;4958510;28;98574;-70
2022/12/16 02:02:43;;;;;;;;;;;;;;;9.21;44.91;100081.81;4961052;28;125548;-70
2022/12/16 02:05:21;;;;;;;;;;;;;;;9.22;44.89;100084.22;4960573;28;127124;-70
2022/12/16 02:08:10;;;;;;;;;;;;;;;9.21;45.30;100076.44;4945252;28;98044;-69
2022/12/16 02:10:42;;;;;;;;;;;;;;;9.21;44.92;100068.34;4957214;28;98885;-66
2022/12/16 02:13:20;;;;;;;;;;;;;;;9.21;45.03;100065.66;4972712;28;98264;-70
2022/12/16 02:15:58;;;;;;;;;;;;;;;9.20;45.27;100070.25;4955342;28;98174;-70
2022/12/16 02:18:49;;;;;;;;;;;;;;;9.21;45.02;100069.16;4975036;28;98193;-70
2022/12/16 02:21:18;;;;;;;;;;;;;;;9.22;45.08;100061.91;4958197;28;98109;-70
2022/12/16 02:24:13;;;;;;;;;;;;;;;9.21;44.77;100061.09;4974322;28;98079;-70
2022/12/16 02:27:00;;;;;;;;;;;;;;;9.22;45.24;100048.44;4960770;28;119554;-71
2022/12/16 02:30:04;;;;;;;;;;;;;;;9.21;45.30;100050.34;4977582;28;97804;-66
2022/12/16 02:32:42;;;;;;;;;;;;;;;9.21;45.38;100042.25;4979129;28;98355;-66
2022/12/16 02:35:16;;;;;;;;;;;;;;;9.22;44.90;100043.06;4945100;28;98309;-66
2022/12/16 02:38:14;;;;;;;;;;;;;;;9.21;45.24;100044.16;4959737;28;98231;-70
2022/12/16 02:40:58;;;;;;;;;;;;;;;9.21;45.44;100038.78;4870692;28;98458;-66
2022/12/16 02:43:34;;;;;;;;;;;;;;;9.22;45.49;100046.56;4941870;28;123341;-70
2022/12/16 02:46:00;;;;;;;;;;;;;;;9.22;44.90;100043.06;4946696;28;98587;-66
2022/12/16 02:48:28;;;;;;;;;;;;;;;9.22;44.98;100043.88;4924766;28;114125;-65
2022/12/16 02:50:54;;;;;;;;;;;;;;;9.22;45.05;100041.19;4941975;28;122627;-70
2022/12/16 02:53:19;;;;;;;;;;;;;;;9.23;45.36;100033.91;4923448;28;129524;-70
2022/12/16 02:56:24;;;;;;;;;;;;;;;9.23;45.72;100032.03;4943777;28;128304;-69
2022/12/16 02:59:12;;;;;;;;;;;;;;;9.23;45.28;100037.41;4903671;28;98825;-66
2022/12/16 03:02:03;;;;;;;;;;;;;;;9.24;45.03;100032.88;4960661;28;98024;-70
2022/12/16 03:04:48;;;;;;;;;;;;;;;9.24;45.00;100036.34;4943322;28;98151;-66
2022/12/16 03:07:14;;;;;;;;;;;;;;;9.24;45.24;100030.19;4945364;28;98288;-70
2022/12/16 03:09:40;;;;;;;;;;;;;;;9.25;45.14;100032.59;4933867;28;127012;-70
2022/12/16 03:12:10;;;;;;;;;;;;;;;9.25;45.38;100029.91;4960013;28;112274;-66
2022/12/16 03:14:37;;;;;;;;;;;;;;;9.26;45.27;100025.31;4928160;28;101830;-66
2022/12/16 03:17:02;;;;;;;;;;;;;;;9.26;44.87;100015.38;4925121;28;123979;-69
2022/12/16 03:19:29;;;;;;;;;;;;;;;9.27;45.38;100019.66;4942022;28;127727;-70
2022/12/16 03:22:10;;;;;;;;;;;;;;;9.28;44.65;100023.19;4929540;28;98480;-66
2022/12/16 03:24:36;;;;;;;;;;;;;;;9.29;45.09;100022.09;4944241;28;121860;-66
2022/12/16 03:27:17;;;;;;;;;;;;;;;9.29;45.04;100022.09;4913764;28;98166;-70
2022/12/16 03:29:55;;;;;;;;;;;;;;;9.30;45.60;100023.69;4960094;28;97871;-70
2022/12/16 03:32:24;;;;;;;;;;;;;;;9.30;45.28;100024.50;4925542;28;117557;-66
2022/12/16 03:34:59;;;;;;;;;;;;;;;9.31;45.22;100026.16;4928500;28;118765;-70
2022/12/16 03:37:27;;;;;;;;;;;;;;;9.31;45.40;100028.00;4927976;28;113945;-69
2022/12/16 03:39:56;;;;;;;;;;;;;;;9.31;45.21;100026.16;4942690;28;119215;-65
2022/12/16 03:42:22;;;;;;;;;;;;;;;9.32;45.03;100025.06;4974381;28;98096;-66
2022/12/16 03:44:48;;;;;;;;;;;;;;;9.33;45.12;100026.66;4959906;28;127747;-66
2022/12/16 03:47:14;;;;;;;;;;;;;;;9.32;45.19;100030.44;4942922;28;128353;-66
2022/12/16 03:49:40;;;;;;;;;;;;;;;9.33;45.30;100033.94;4958577;28;98248;-70
2022/12/16 03:52:06;;;;;;;;;;;;;;;9.34;45.28;100030.16;4973106;28;122106;-66
2022/12/16 03:54:32;;;;;;;;;;;;;;;9.33;45.53;100021.28;4974146;28;98355;-70
2022/12/16 03:56:58;;;;;;;;;;;;;;;9.34;45.01;100028.28;4960138;28;105471;-66
2022/12/16 03:59:24;;;;;;;;;;;;;;;9.35;45.64;100031.75;4959528;28;118515;-66
2022/12/16 04:01:50;;;;;;;;;;;;;;;9.36;45.08;100029.91;4943442;28;98031;-66
2022/12/16 04:04:16;;;;;;;;;;;;;;;9.34;45.62;100033.66;4938996;28;128408;-70
2022/12/16 04:06:42;;;;;;;;;;;;;;;9.35;44.92;100031.75;4955759;28;127828;-65
2022/12/16 04:09:08;;;;;;;;;;;;;;;9.37;45.67;100036.88;4944022;28;119810;-66
2022/12/16 04:25:22;;;;;;;;;;;;;;;9.39;44.96;100038.22;4957842;28;98346;-65
2022/12/16 04:27:48;;;;;;;;;;;;;;;9.40;45.01;100041.75;4956419;28;98378;-66
2022/12/16 04:30:18;;;;;;;;;;;;;;;9.40;45.14;100047.13;4939741;28;110183;-66
